OIAA

Details ICAO OIAA (ABD)
Name ABADAN
Region Iran
Timezone Asia/Tehran (UTC+3.5)
Plans Departing 2
Arriving 12
Stats Elevation 19 ft / 6 m (AMSL)
Location 30.365179° 48.233170°
Runways 2
Magnetic Variation 3.758° E
Sunrise 2017-12-15 03:37:35 UTC / 2017-12-15 07:07:35 Local
Sunset 2017-12-15 13:49:31 UTC / 2017-12-15 17:19:31 Local
Advertisement - Login to hide

Runways

ID Width Length Bearing (true) Bearing (mag) Surface Threshold Offset Overrun Length
14L 115 ft / 35 m 7,442 ft / 2,268 m 144.73° 140.97° Asphalt 0 ft / 0 m 197 ft / 60 m
14R 148 ft / 45 m 10,191 ft / 3,106 m 144.72° 140.96° Asphalt 0 ft / 0 m 197 ft / 60 m
32L 148 ft / 45 m 10,191 ft / 3,106 m 324.73° 320.97° Asphalt 0 ft / 0 m 197 ft / 60 m
32R 115 ft / 35 m 7,442 ft / 2,268 m 324.73° 320.97° Asphalt 0 ft / 0 m 197 ft / 60 m

Map

Weather


0- 5 10 15 20 25 30 35+ Temperature / ° C

Clouds and Precipitation
Forecast for 2017-12-15 00:00 UTC. Updated 2 hours ago

Ground ~20,000 ft ~40,000 ft Winds

METAR

OIAA 142100Z 04002KT 7000 NSC 13/11 Q1014

TAF

TAF TAF OIAA 141110Z 1412/1518 15003MPS 6000 FEW035 TEMPO 1420/1503 3000 BR TEMPO 1509/1518 12009MPS FEW030CB SCT035 BKN090

Frequencies

Recorded 126.85 MHz ATIS
Tower 118.10 MHz TWR
Tower 121.80 MHz TWR
Warning: Do not use this data for real-world aviation or navigation. No guarantee of current accuracy is given.